SBSN/STM METAR and TAF weather

Enter ICAO airport designator
Station Type Date Time Source
SBSN METAR 2020/01/29 03:00 UTC NOAA

SBSN 290300Z 14004KT CAVOK 24/23 Q1011


Station Type Date Time Source
SBSN Decoded METAR 2020/01/29 03:00 UTC NOAA

Santarem-Aeroporto, Brazil (SBSN) 02-26S 054-43W 72M
Jan 28, 2020 - 10:00 PM EST / 2020.01.29 0300 UTC
Wind: from the SE (140 degrees) at 5 MPH (4 KT):0
Visibility: greater than 7 mile(s):0
Temperature: 75 F (24 C)
Dew Point: 73 F (23 C)
Relative Humidity: 94%
Pressure (altimeter): 29.85 in. Hg (1011 hPa)
ob: SBSN 290300Z 14004KT CAVOK 24/23 Q1011
cycle: 3

Station Type Date Time Source
SBSN TAF 2020/01/29 06:40 UTC NOAA

TAF SBSN 290230Z 2906/3006 14005KT 9999 SCT020 TN24/2908Z TX30/2917Z
BECMG 2906/2908 12005KT
BECMG 2910/2912 08010KT
BECMG 2912/2914 10010KT
BECMG 2914/2916 08007KT
BECMG 2918/2920 06005KT PROB30 2920/2923 SCT020 FEW030TCU
RMK PGW

Example: see airport list